createdAt,value
2023-05-10T00:00:10.865Z,20.28
2023-05-10T00:02:36.620Z,20.26
2023-05-10T00:05:02.577Z,20.26
2023-05-10T00:07:28.223Z,20.25
2023-05-10T00:09:53.884Z,20.26
2023-05-10T00:12:19.539Z,20.26
2023-05-10T00:14:45.328Z,20.26
2023-05-10T00:17:10.976Z,20.26
2023-05-10T00:19:36.691Z,20.26
2023-05-10T00:22:02.361Z,20.26
2023-05-10T00:24:28.068Z,20.26
2023-05-10T00:26:53.722Z,20.26
2023-05-10T00:29:19.795Z,20.26
2023-05-10T00:31:45.615Z,20.26
2023-05-10T00:34:11.312Z,20.25
2023-05-10T00:36:36.968Z,20.25
2023-05-10T00:39:03.734Z,20.25
2023-05-10T00:41:32.460Z,20.26
2023-05-10T00:43:58.096Z,20.25
2023-05-10T00:46:23.828Z,20.25
2023-05-10T00:48:49.623Z,20.26
2023-05-10T00:51:15.338Z,20.25
2023-05-10T00:53:41.050Z,20.24
2023-05-10T00:56:06.750Z,20.25
2023-05-10T00:58:32.538Z,20.24
2023-05-10T01:00:58.806Z,20.24
2023-05-10T01:03:25.445Z,20.24
2023-05-10T01:05:51.226Z,20.24
2023-05-10T01:08:17.078Z,20.24
2023-05-10T01:10:43.188Z,20.24
2023-05-10T01:13:09.614Z,20.24
2023-05-10T01:15:36.030Z,20.24
2023-05-10T01:18:02.225Z,20.23
2023-05-10T01:20:32.636Z,20.23
2023-05-10T01:23:23.655Z,20.23
2023-05-10T01:26:20.845Z,20.23
2023-05-10T01:28:59.825Z,20.24
2023-05-10T01:31:49.180Z,20.23
2023-05-10T01:34:18.730Z,20.22
2023-05-10T01:36:48.797Z,20.23
2023-05-10T01:39:19.318Z,20.22
2023-05-10T01:42:08.528Z,20.23
2023-05-10T01:44:37.878Z,20.22
2023-05-10T01:47:11.187Z,20.22
2023-05-10T01:49:46.768Z,20.22
2023-05-10T01:52:14.663Z,20.22
2023-05-10T01:54:43.390Z,20.21
2023-05-10T01:57:10.091Z,20.21
2023-05-10T01:59:37.224Z,20.21
2023-05-10T02:02:03.363Z,20.21
2023-05-10T02:04:29.411Z,20.21
2023-05-10T02:06:55.421Z,20.22
2023-05-10T02:09:21.933Z,20.21
2023-05-10T02:11:48.827Z,20.22
2023-05-10T02:14:15.894Z,20.20
2023-05-10T02:16:42.009Z,20.22
2023-05-10T02:19:08.944Z,20.21
2023-05-10T02:21:35.449Z,20.21
2023-05-10T02:24:02.827Z,20.21
2023-05-10T02:26:29.125Z,20.20
2023-05-10T02:28:55.309Z,20.21
2023-05-10T02:31:21.824Z,20.21
2023-05-10T02:33:48.437Z,20.20
2023-05-10T02:36:14.304Z,20.20
2023-05-10T02:38:40.698Z,20.20
2023-05-10T02:41:08.194Z,20.20
2023-05-10T02:43:34.169Z,20.19
2023-05-10T02:46:00.013Z,20.20
2023-05-10T02:48:25.748Z,20.20
2023-05-10T02:50:52.943Z,20.19
2023-05-10T02:53:23.653Z,20.20
2023-05-10T02:55:52.638Z,20.19
2023-05-10T02:58:19.573Z,20.19
2023-05-10T03:00:46.393Z,20.19
2023-05-10T03:03:12.057Z,20.19
2023-05-10T03:05:37.714Z,20.19
2023-05-10T03:08:04.406Z,20.19
2023-05-10T03:10:31.098Z,20.19
2023-05-10T03:13:19.073Z,20.20
2023-05-10T03:15:56.025Z,20.19
2023-05-10T03:18:23.579Z,20.18
2023-05-10T03:20:51.428Z,20.18
2023-05-10T03:23:23.460Z,20.20
2023-05-10T03:25:50.489Z,20.19
2023-05-10T03:28:16.905Z,20.19
2023-05-10T03:30:43.799Z,20.18
2023-05-10T03:33:09.520Z,20.18
2023-05-10T03:35:35.332Z,20.18
2023-05-10T03:38:01.404Z,20.18
2023-05-10T03:40:29.010Z,20.18
2023-05-10T03:42:55.350Z,20.19
2023-05-10T03:45:21.059Z,20.19
2023-05-10T03:47:46.874Z,20.18
2023-05-10T03:50:12.524Z,20.18
2023-05-10T03:52:39.340Z,20.18
2023-05-10T03:55:06.509Z,20.18
2023-05-10T03:57:32.382Z,20.18
2023-05-10T03:59:58.020Z,20.18
2023-05-10T04:02:23.807Z,20.17
2023-05-10T04:04:49.680Z,20.17
2023-05-10T04:07:15.320Z,20.17
2023-05-10T04:09:40.985Z,20.18
2023-05-10T04:12:07.987Z,20.17
2023-05-10T04:14:34.625Z,20.17
2023-05-10T04:17:00.296Z,20.17
2023-05-10T04:19:29.698Z,20.17
2023-05-10T04:21:55.341Z,20.17
2023-05-10T04:24:20.980Z,20.17
2023-05-10T04:26:46.637Z,20.18
2023-05-10T04:29:12.291Z,20.19
2023-05-10T04:31:38.050Z,20.19
2023-05-10T04:34:03.694Z,20.19
2023-05-10T04:36:29.426Z,20.18
2023-05-10T04:38:55.060Z,20.18
2023-05-10T04:41:20.867Z,20.19
2023-05-10T04:43:49.170Z,20.18
2023-05-10T04:46:14.854Z,20.18
2023-05-10T04:48:40.507Z,20.17
2023-05-10T04:51:06.689Z,20.18
2023-05-10T04:53:32.690Z,20.17
2023-05-10T04:55:58.344Z,20.18
2023-05-10T04:58:24.001Z,20.18
2023-05-10T05:00:49.666Z,20.17
2023-05-10T05:03:15.384Z,20.17
2023-05-10T05:05:41.063Z,20.17
2023-05-10T05:08:06.727Z,20.17
2023-05-10T05:10:32.420Z,20.16
2023-05-10T05:12:58.087Z,20.16
2023-05-10T05:15:23.772Z,20.15
2023-05-10T05:17:49.440Z,20.15
2023-05-10T05:20:15.326Z,20.15
2023-05-10T05:22:41.220Z,20.16
2023-05-10T05:25:07.209Z,20.17
2023-05-10T05:27:32.877Z,20.16
2023-05-10T05:29:58.656Z,20.16
2023-05-10T05:32:25.074Z,20.15
2023-05-10T05:34:51.351Z,20.15
2023-05-10T05:37:18.375Z,20.17
2023-05-10T05:39:44.221Z,20.16
2023-05-10T05:42:10.249Z,20.16
2023-05-10T05:44:35.942Z,20.16
2023-05-10T05:47:01.646Z,20.21
2023-05-10T05:49:27.335Z,20.20
2023-05-10T05:51:53.001Z,20.19
2023-05-10T05:54:18.687Z,20.19
2023-05-10T05:56:44.544Z,20.18
2023-05-10T05:59:10.873Z,20.17
2023-05-10T06:01:36.532Z,20.17
2023-05-10T06:04:02.459Z,20.16
2023-05-10T06:06:28.212Z,20.17
2023-05-10T06:08:53.951Z,20.17
2023-05-10T06:11:21.196Z,20.16
2023-05-10T06:13:47.378Z,20.16
2023-05-10T06:16:13.476Z,20.16
2023-05-10T06:18:39.297Z,20.16
2023-05-10T06:21:05.114Z,20.16
2023-05-10T06:23:30.788Z,20.18
2023-05-10T06:25:56.444Z,20.16
2023-05-10T06:28:22.150Z,20.16
2023-05-10T06:30:48.033Z,20.17
2023-05-10T06:33:13.907Z,20.17
2023-05-10T06:35:39.553Z,20.17
2023-05-10T06:38:05.342Z,20.15
2023-05-10T06:40:31.046Z,20.09
2023-05-10T06:42:56.701Z,20.16
2023-05-10T06:45:22.343Z,20.17
2023-05-10T06:47:48.077Z,20.17
2023-05-10T06:50:13.813Z,20.18
2023-05-10T06:52:39.660Z,20.18
2023-05-10T06:55:05.792Z,20.19
2023-05-10T06:57:32.322Z,20.19
2023-05-10T06:59:59.042Z,20.20
2023-05-10T07:02:24.852Z,20.20
2023-05-10T07:04:51.971Z,20.20
2023-05-10T07:07:18.095Z,20.20
2023-05-10T07:09:43.841Z,20.21
2023-05-10T07:12:11.625Z,20.21
2023-05-10T07:14:39.662Z,20.20
2023-05-10T07:17:05.380Z,20.19
2023-05-10T07:19:32.734Z,20.21
2023-05-10T07:21:58.489Z,20.22
2023-05-10T07:24:24.497Z,20.23
2023-05-10T07:26:50.251Z,20.24
2023-05-10T07:29:15.902Z,20.23
2023-05-10T07:31:42.979Z,20.25
2023-05-10T07:34:09.017Z,20.25
2023-05-10T07:36:35.116Z,20.25
2023-05-10T07:39:00.793Z,20.25
2023-05-10T07:41:26.504Z,20.27
2023-05-10T07:43:52.274Z,20.27
2023-05-10T07:46:19.562Z,20.27
2023-05-10T07:48:45.368Z,20.29
2023-05-10T07:51:11.031Z,20.26
2023-05-10T07:53:37.366Z,20.30
2023-05-10T07:56:21.178Z,20.31
2023-05-10T07:58:46.828Z,20.29
2023-05-10T08:01:12.541Z,20.21
2023-05-10T08:03:38.302Z,20.14
2023-05-10T08:06:04.315Z,20.23
2023-05-10T08:08:30.051Z,20.27
2023-05-10T08:10:55.813Z,20.27
2023-05-10T08:13:21.544Z,20.35
2023-05-10T08:15:47.667Z,20.40
2023-05-10T08:18:13.763Z,20.39
2023-05-10T08:20:39.559Z,20.41
2023-05-10T08:23:05.344Z,20.48
2023-05-10T08:25:31.557Z,20.34
2023-05-10T08:27:57.231Z,20.43
2023-05-10T08:30:22.916Z,20.42
2023-05-10T08:32:48.624Z,20.45
2023-05-10T08:35:15.923Z,20.52
2023-05-10T08:37:41.871Z,20.59
2023-05-10T08:40:10.878Z,20.56
2023-05-10T08:42:37.897Z,20.55
2023-05-10T08:45:04.943Z,20.55
2023-05-10T08:47:30.986Z,20.60
2023-05-10T08:49:59.709Z,20.63
2023-05-10T08:52:26.772Z,20.60
2023-05-10T08:54:52.564Z,20.62
2023-05-10T08:57:19.244Z,20.62
2023-05-10T08:59:45.374Z,20.65
2023-05-10T09:02:12.016Z,20.43
2023-05-10T09:04:37.747Z,20.59
2023-05-10T09:07:03.517Z,20.67
2023-05-10T09:09:29.217Z,20.72
2023-05-10T09:11:55.060Z,20.73
2023-05-10T09:14:20.855Z,20.72
2023-05-10T09:16:47.147Z,20.69
2023-05-10T09:19:12.854Z,20.57
2023-05-10T09:21:38.806Z,20.65
2023-05-10T09:24:06.098Z,20.17
2023-05-10T09:26:31.932Z,19.93
2023-05-10T09:28:59.241Z,20.22
2023-05-10T09:31:26.131Z,20.43
2023-05-10T09:33:52.562Z,20.53
2023-05-10T09:36:18.334Z,20.57
2023-05-10T09:38:52.030Z,20.59
2023-05-10T09:41:20.815Z,20.61
2023-05-10T09:43:46.588Z,20.62
2023-05-10T09:46:12.332Z,20.63
2023-05-10T09:48:42.620Z,20.62
2023-05-10T09:51:08.246Z,20.63
2023-05-10T09:53:33.893Z,20.64
2023-05-10T09:55:59.537Z,20.65
2023-05-10T09:58:25.224Z,20.65
2023-05-10T10:00:52.483Z,20.65
2023-05-10T10:03:20.801Z,20.65
2023-05-10T10:05:47.708Z,20.66
2023-05-10T10:08:14.070Z,20.64
2023-05-10T10:10:41.282Z,20.65
2023-05-10T10:13:07.240Z,20.65
2023-05-10T10:15:34.047Z,20.66
2023-05-10T10:18:00.161Z,20.63
2023-05-10T10:20:26.480Z,20.65
2023-05-10T10:22:53.035Z,20.66
2023-05-10T10:25:20.399Z,20.66
2023-05-10T10:28:15.123Z,20.67
2023-05-10T10:30:43.775Z,20.67
2023-05-10T10:36:04.066Z,20.66
2023-05-10T10:38:42.152Z,20.67
2023-05-10T10:41:27.754Z,20.67
2023-05-10T10:44:34.326Z,20.66
2023-05-10T10:49:54.719Z,20.50
2023-05-10T10:52:40.080Z,20.61
2023-05-10T10:55:15.493Z,20.64
2023-05-10T11:03:10.868Z,20.66
2023-05-10T11:05:44.315Z,20.67
2023-05-10T11:08:16.434Z,20.67
2023-05-10T11:10:52.281Z,20.67
2023-05-10T11:13:29.572Z,20.67
2023-05-10T11:15:57.320Z,20.67
2023-05-10T11:18:27.075Z,20.67
2023-05-10T11:21:03.402Z,20.68
2023-05-10T11:23:31.797Z,20.68
2023-05-10T11:25:57.362Z,20.68
2023-05-10T11:28:23.130Z,20.68
2023-05-10T11:30:49.103Z,20.67
2023-05-10T11:33:17.174Z,20.68
2023-05-10T11:35:43.672Z,20.69
2023-05-10T11:38:11.259Z,20.68
2023-05-10T11:40:37.511Z,20.68
2023-05-10T11:43:03.729Z,20.68
2023-05-10T11:45:32.249Z,20.68
2023-05-10T11:47:58.218Z,20.68
2023-05-10T11:50:24.034Z,20.70
2023-05-10T11:52:52.693Z,20.69
2023-05-10T11:55:18.451Z,20.67
2023-05-10T11:57:46.100Z,20.67
2023-05-10T12:00:13.156Z,20.68
2023-05-10T12:02:38.997Z,20.69
2023-05-10T12:05:06.021Z,20.69
2023-05-10T12:07:31.838Z,20.69
2023-05-10T12:10:09.240Z,20.68
2023-05-10T12:12:38.095Z,20.68
2023-05-10T12:15:05.354Z,20.67
2023-05-10T12:17:31.073Z,20.68
2023-05-10T12:20:14.900Z,20.68
2023-05-10T12:22:40.812Z,20.68
2023-05-10T12:25:08.415Z,20.68
2023-05-10T12:27:35.226Z,20.67
2023-05-10T12:30:01.016Z,20.67
2023-05-10T12:32:44.830Z,20.68
2023-05-10T12:35:10.518Z,20.44
2023-05-10T12:37:39.172Z,20.32
2023-05-10T12:40:08.157Z,20.29
2023-05-10T12:42:34.932Z,20.21
2023-05-10T12:45:00.595Z,19.87
2023-05-10T12:47:26.239Z,19.74
2023-05-10T12:49:51.906Z,20.19
2023-05-10T12:52:17.545Z,20.38
2023-05-10T12:54:43.212Z,20.47
2023-05-10T12:57:08.862Z,20.52
2023-05-10T12:59:36.071Z,20.57
2023-05-10T13:02:03.680Z,20.58
2023-05-10T13:04:29.373Z,20.60
2023-05-10T13:06:58.787Z,20.63
2023-05-10T13:09:25.421Z,20.62
2023-05-10T13:11:51.411Z,20.63
2023-05-10T13:14:17.091Z,20.64
2023-05-10T13:16:42.810Z,20.64
2023-05-10T13:19:08.511Z,20.65
2023-05-10T13:21:34.218Z,20.64
2023-05-10T13:24:00.527Z,20.65
2023-05-10T13:26:26.422Z,20.65
2023-05-10T13:28:52.079Z,20.66
2023-05-10T13:31:17.752Z,20.67
2023-05-10T13:33:43.422Z,20.66
2023-05-10T13:36:09.108Z,20.67
2023-05-10T13:38:34.790Z,20.67
2023-05-10T13:41:00.590Z,20.67
2023-05-10T13:43:26.227Z,20.68
2023-05-10T13:45:52.389Z,20.69
2023-05-10T13:48:18.102Z,20.67
2023-05-10T13:50:43.775Z,20.69
2023-05-10T13:53:09.453Z,20.68
2023-05-10T13:55:35.956Z,20.69
2023-05-10T13:58:01.592Z,20.70
2023-05-10T14:00:27.387Z,20.69
2023-05-10T14:02:53.453Z,20.70
2023-05-10T14:05:22.209Z,20.70
2023-05-10T14:07:51.044Z,20.69
2023-05-10T14:10:16.729Z,20.69
2023-05-10T14:12:42.411Z,20.68
2023-05-10T14:15:10.531Z,20.68
2023-05-10T14:17:36.262Z,20.68
2023-05-10T14:20:02.315Z,20.69
2023-05-10T14:22:27.988Z,20.68
2023-05-10T14:24:54.408Z,20.68
2023-05-10T14:27:20.059Z,20.68
2023-05-10T14:29:45.779Z,20.68
2023-05-10T14:32:11.514Z,20.68
2023-05-10T14:34:37.220Z,20.67
2023-05-10T14:37:02.890Z,20.69
2023-05-10T14:39:29.950Z,20.67
2023-05-10T14:41:55.817Z,20.67
2023-05-10T14:44:21.524Z,20.66
2023-05-10T14:46:48.437Z,20.66
2023-05-10T14:49:14.173Z,20.66
2023-05-10T14:51:39.871Z,20.65
2023-05-10T14:54:05.519Z,20.65
2023-05-10T14:56:31.679Z,20.65
2023-05-10T14:58:57.315Z,20.65
2023-05-10T15:01:23.652Z,20.64
2023-05-10T15:03:49.816Z,20.64
2023-05-10T15:06:16.576Z,20.65
2023-05-10T15:08:42.223Z,20.65
2023-05-10T15:11:07.968Z,20.65
2023-05-10T15:13:33.631Z,20.64
2023-05-10T15:15:59.318Z,20.45
2023-05-10T15:18:25.110Z,20.56
2023-05-10T15:20:50.852Z,20.59
2023-05-10T15:23:16.534Z,20.62
2023-05-10T15:25:42.237Z,20.64
2023-05-10T15:28:07.886Z,20.64
2023-05-10T15:30:33.529Z,20.65
2023-05-10T15:32:59.326Z,20.66
2023-05-10T15:35:26.111Z,20.66
2023-05-10T15:37:51.771Z,20.66
2023-05-10T15:40:17.437Z,20.68
2023-05-10T15:42:43.101Z,20.67
2023-05-10T15:45:09.635Z,20.67
2023-05-10T15:47:35.327Z,20.67
2023-05-10T15:50:01.114Z,20.67
2023-05-10T15:52:27.359Z,20.69
2023-05-10T15:54:53.008Z,20.69
2023-05-10T15:57:18.667Z,20.68
2023-05-10T15:59:45.026Z,20.68
2023-05-10T16:02:10.730Z,20.69
2023-05-10T16:04:36.933Z,20.69
2023-05-10T16:07:02.695Z,20.69
2023-05-10T16:09:28.327Z,20.69
2023-05-10T16:11:54.249Z,20.69
2023-05-10T16:14:22.124Z,20.69
2023-05-10T16:16:48.114Z,20.69
2023-05-10T16:19:13.826Z,20.68
2023-05-10T16:21:39.561Z,20.70
2023-05-10T16:24:05.436Z,20.69
2023-05-10T16:26:31.066Z,20.70
2023-05-10T16:28:56.740Z,20.71
2023-05-10T16:31:22.444Z,20.71
2023-05-10T16:33:48.655Z,20.69
2023-05-10T16:36:14.305Z,20.70
2023-05-10T16:38:40.830Z,20.71
2023-05-10T16:41:06.616Z,20.68
2023-05-10T16:43:32.516Z,20.69
2023-05-10T16:45:58.235Z,20.68
2023-05-10T16:48:23.936Z,20.69
2023-05-10T16:50:49.577Z,20.67
2023-05-10T16:53:15.333Z,20.68
2023-05-10T16:55:41.279Z,20.68
2023-05-10T16:58:07.006Z,20.68
2023-05-10T17:00:32.883Z,20.67
2023-05-10T17:02:58.621Z,20.68
2023-05-10T17:05:25.818Z,20.68
2023-05-10T17:07:51.466Z,20.68
2023-05-10T17:10:17.174Z,20.67
2023-05-10T17:12:42.889Z,20.69
2023-05-10T17:15:09.125Z,20.69
2023-05-10T17:17:34.806Z,20.68
2023-05-10T17:20:00.478Z,20.68
2023-05-10T17:22:26.254Z,20.69
2023-05-10T17:24:51.927Z,20.69
2023-05-10T17:27:17.610Z,20.69
2023-05-10T17:29:43.253Z,20.68
2023-05-10T17:32:08.970Z,20.68
2023-05-10T17:34:35.849Z,20.68
2023-05-10T17:37:01.629Z,20.67
2023-05-10T17:39:27.415Z,20.69
2023-05-10T17:41:53.187Z,20.67
2023-05-10T17:44:18.870Z,20.66
2023-05-10T17:46:44.536Z,20.66
2023-05-10T17:49:10.365Z,20.65
2023-05-10T17:51:36.014Z,20.64
2023-05-10T17:54:01.721Z,20.64
2023-05-10T17:56:27.991Z,20.64
2023-05-10T17:58:53.787Z,20.65
2023-05-10T18:01:19.592Z,20.63
2023-05-10T18:03:45.528Z,20.63
2023-05-10T18:06:11.404Z,20.63
2023-05-10T18:08:37.084Z,20.63
2023-05-10T18:11:02.740Z,20.62
2023-05-10T18:13:28.400Z,20.62
2023-05-10T18:15:54.042Z,20.63
2023-05-10T18:18:19.735Z,20.64
2023-05-10T18:20:45.741Z,20.62
2023-05-10T18:23:12.150Z,20.62
2023-05-10T18:25:38.007Z,20.61
2023-05-10T18:28:03.792Z,20.61
2023-05-10T18:30:29.471Z,20.62
2023-05-10T18:32:55.251Z,20.62
2023-05-10T18:35:21.254Z,20.60
2023-05-10T18:37:47.847Z,20.62
2023-05-10T18:40:13.896Z,20.61
2023-05-10T18:42:40.924Z,20.61
2023-05-10T18:45:07.297Z,20.60
2023-05-10T18:47:33.073Z,20.61
2023-05-10T18:49:58.764Z,20.60
2023-05-10T18:52:24.408Z,20.61
2023-05-10T18:54:50.044Z,20.60
2023-05-10T18:57:15.727Z,20.60
2023-05-10T18:59:41.417Z,20.60
2023-05-10T19:02:07.392Z,20.60
2023-05-10T19:04:33.131Z,20.60
2023-05-10T19:07:01.090Z,20.59
2023-05-10T19:09:26.836Z,20.59
2023-05-10T19:11:52.511Z,20.60
2023-05-10T19:14:18.231Z,20.59
2023-05-10T19:16:43.886Z,20.59
2023-05-10T19:19:09.605Z,20.58
2023-05-10T19:21:35.392Z,20.59
2023-05-10T19:24:01.213Z,20.58
2023-05-10T19:26:27.147Z,20.59
2023-05-10T19:28:53.617Z,20.59
2023-05-10T19:31:19.988Z,20.58
2023-05-10T19:33:46.850Z,20.58
2023-05-10T19:36:12.632Z,20.58
2023-05-10T19:38:38.322Z,20.57
2023-05-10T19:41:03.976Z,20.57
2023-05-10T19:43:33.338Z,20.57
2023-05-10T19:46:01.298Z,20.57
2023-05-10T19:48:27.504Z,20.57
2023-05-10T19:50:55.121Z,20.57
2023-05-10T19:53:20.791Z,20.57
2023-05-10T19:55:46.744Z,20.57
2023-05-10T19:58:12.504Z,20.57
2023-05-10T20:00:38.220Z,20.56
2023-05-10T20:03:06.314Z,20.57
2023-05-10T20:05:33.354Z,20.56
2023-05-10T20:07:59.012Z,20.55
2023-05-10T20:10:26.896Z,20.55
2023-05-10T20:12:53.447Z,20.54
2023-05-10T20:15:21.044Z,20.54
2023-05-10T20:17:47.396Z,20.56
2023-05-10T20:20:15.065Z,20.54
2023-05-10T20:22:41.815Z,20.53
2023-05-10T20:25:08.070Z,20.54
2023-05-10T20:27:33.721Z,20.53
2023-05-10T20:29:59.374Z,20.53
2023-05-10T20:32:25.049Z,20.54
2023-05-10T20:34:50.723Z,20.54
2023-05-10T20:37:16.906Z,20.53
2023-05-10T20:39:43.206Z,20.53
2023-05-10T20:42:08.871Z,20.53
2023-05-10T20:44:34.545Z,20.53
2023-05-10T20:47:00.345Z,20.54
2023-05-10T20:49:27.188Z,20.54
2023-05-10T20:51:53.497Z,20.53
2023-05-10T20:54:19.567Z,20.53
2023-05-10T20:56:45.212Z,20.52
2023-05-10T20:59:11.177Z,20.53
2023-05-10T21:01:36.887Z,20.53
2023-05-10T21:04:02.794Z,20.52
2023-05-10T21:06:28.496Z,20.53
2023-05-10T21:08:54.157Z,20.52
2023-05-10T21:11:19.960Z,20.51
2023-05-10T21:13:45.607Z,20.52
2023-05-10T21:16:11.262Z,20.51
2023-05-10T21:18:37.022Z,20.51
2023-05-10T21:21:03.012Z,20.51
2023-05-10T21:23:28.638Z,20.50
2023-05-10T21:25:55.053Z,20.50
2023-05-10T21:28:20.840Z,20.50
2023-05-10T21:30:47.073Z,20.51
2023-05-10T21:33:13.016Z,20.50
2023-05-10T21:35:41.831Z,20.51
2023-05-10T21:38:08.807Z,20.50
2023-05-10T21:40:35.121Z,20.50
2023-05-10T21:43:00.819Z,20.50
2023-05-10T21:45:28.267Z,20.50
2023-05-10T21:47:53.937Z,20.51
2023-05-10T21:50:19.905Z,20.50
2023-05-10T21:52:45.684Z,20.50
2023-05-10T21:55:11.360Z,20.51
2023-05-10T21:57:37.001Z,20.49
2023-05-10T22:00:02.917Z,20.50
2023-05-10T22:02:28.719Z,20.50
2023-05-10T22:04:54.411Z,20.50
2023-05-10T22:07:20.105Z,20.49
2023-05-10T22:09:45.750Z,20.50
2023-05-10T22:12:11.844Z,20.50
2023-05-10T22:14:37.497Z,20.49
2023-05-10T22:17:03.223Z,20.48
2023-05-10T22:19:28.869Z,20.50
2023-05-10T22:21:54.629Z,20.48
2023-05-10T22:24:20.668Z,20.49
2023-05-10T22:26:46.307Z,20.48
2023-05-10T22:29:11.980Z,20.49
2023-05-10T22:31:37.785Z,20.48
2023-05-10T22:34:03.476Z,20.48
2023-05-10T22:36:29.697Z,20.48
2023-05-10T22:38:55.416Z,20.49
2023-05-10T22:41:22.018Z,20.49
2023-05-10T22:43:48.051Z,20.48
2023-05-10T22:46:13.775Z,20.47
2023-05-10T22:48:39.510Z,20.47
2023-05-10T22:51:05.306Z,20.47
2023-05-10T22:53:30.955Z,20.48
2023-05-10T22:55:56.808Z,20.48
2023-05-10T22:58:22.577Z,20.48
2023-05-10T23:00:48.228Z,20.47
2023-05-10T23:03:13.869Z,20.47
2023-05-10T23:05:39.637Z,20.47
2023-05-10T23:08:05.594Z,20.47
2023-05-10T23:10:31.482Z,20.47
2023-05-10T23:12:57.374Z,20.47
2023-05-10T23:15:23.262Z,20.47
2023-05-10T23:17:49.177Z,20.47
2023-05-10T23:20:14.870Z,20.46
2023-05-10T23:22:40.505Z,20.47
2023-05-10T23:25:06.752Z,20.45
2023-05-10T23:27:32.483Z,20.45
2023-05-10T23:29:58.221Z,20.46
2023-05-10T23:32:23.918Z,20.46
2023-05-10T23:34:49.594Z,20.46
2023-05-10T23:37:15.249Z,20.46
2023-05-10T23:39:41.039Z,20.45
2023-05-10T23:42:06.690Z,20.46
2023-05-10T23:44:32.426Z,20.47
2023-05-10T23:46:58.091Z,20.45
2023-05-10T23:49:23.754Z,20.45
2023-05-10T23:51:49.481Z,20.45
2023-05-10T23:54:15.173Z,20.46
2023-05-10T23:56:40.823Z,20.45
2023-05-10T23:59:06.462Z,20.45
